Time;durP1;ratioP1;P1;durP2;ratioP2;P2;SDS_P1;SDS_P2;PMS_P1;PMS_P2;Temp;Humidity;BMP_temperature;BMP_pressure;BME280_temperature;BME280_humidity;BME280_pressure;Samples;Min_cycle;Max_cycle;Signal;HPM_P1;HPM_P2
2022/07/19 00:01:24;;;;;;;10.73;3.53;;;;;;;28.22;44.19;101908.00;5033808;28;20504;-75
2022/07/19 00:03:49;;;;;;;10.82;3.67;;;;;;;28.25;43.62;101912.88;5033439;28;20041;-75
2022/07/19 00:06:15;;;;;;;7.13;3.70;;;;;;;28.15;43.81;101906.78;5030909;28;20060;-75
2022/07/19 00:08:40;;;;;;;7.90;3.63;;;;;;;28.08;44.36;101914.75;5034013;28;20033;-75
2022/07/19 00:11:07;;;;;;;9.20;4.50;;;;;;;28.15;43.89;101906.78;5014844;28;20096;-74
2022/07/19 00:13:32;;;;;;;7.80;3.78;;;;;;;28.17;44.30;101899.00;5033954;28;20477;-74
2022/07/19 00:15:58;;;;;;;8.95;4.15;;;;;;;28.10;44.14;101896.72;5034276;28;20037;-75
2022/07/19 00:18:23;;;;;;;9.82;3.78;;;;;;;28.03;44.19;101890.00;5032905;28;20488;-73
2022/07/19 00:20:48;;;;;;;5.13;3.47;;;;;;;28.06;44.38;101892.94;5032958;28;20040;-76
2022/07/19 00:23:14;;;;;;;11.57;4.00;;;;;;;28.03;44.36;101893.56;5032049;28;20087;-75
2022/07/19 00:25:40;;;;;;;7.05;3.75;;;;;;;28.05;44.57;101890.50;5032487;28;20508;-74
2022/07/19 00:28:06;;;;;;;7.22;3.75;;;;;;;28.05;44.07;101893.28;5014232;28;20448;-73
2022/07/19 00:30:31;;;;;;;8.93;3.67;;;;;;;27.84;44.44;101890.19;5032071;28;20037;-73
2022/07/19 00:32:56;;;;;;;8.82;3.63;;;;;;;27.91;44.74;101884.22;5032839;28;20033;-74
2022/07/19 00:35:22;;;;;;;5.68;3.15;;;;;;;27.97;44.63;101894.84;5032077;28;20049;-74
2022/07/19 00:37:48;;;;;;;9.18;3.67;;;;;;;27.90;44.81;101896.38;5031740;28;20056;-74
2022/07/19 00:40:15;;;;;;;5.85;4.05;;;;;;;27.85;44.86;101893.75;5014801;28;20493;-74
2022/07/19 00:42:40;;;;;;;7.32;3.40;;;;;;;27.84;45.03;101892.94;5032230;28;20060;-73
2022/07/19 00:45:06;;;;;;;6.47;2.78;;;;;;;27.84;44.95;101892.94;5013622;28;20046;-74
2022/07/19 00:47:32;;;;;;;10.85;3.65;;;;;;;27.77;44.55;101893.38;5032046;28;20029;-74
2022/07/19 00:49:57;;;;;;;10.10;3.80;;;;;;;27.66;45.08;101891.19;5031256;28;20152;-73
2022/07/19 00:52:26;;;;;;;4.82;3.40;;;;;;;27.53;46.16;101892.91;5031168;28;20374;-74
2022/07/19 00:54:53;;;;;;;6.18;3.70;;;;;;;27.55;46.04;101898.09;5031198;28;20052;-75
2022/07/19 00:57:18;;;;;;;11.27;3.67;;;;;;;27.68;45.43;101898.03;5032144;28;20064;-73
2022/07/19 00:59:58;;;;;;;5.88;3.67;;;;;;;27.66;45.29;101899.47;5014544;28;20033;-74
2022/07/19 01:02:25;;;;;;;7.83;4.07;;;;;;;27.61;45.29;101889.38;5032225;28;20061;-76
2022/07/19 01:04:50;;;;;;;12.73;4.63;;;;;;;27.65;45.43;101892.34;5031788;28;20498;-74
2022/07/19 01:07:15;;;;;;;11.15;4.00;;;;;;;27.50;45.89;101887.16;5033448;28;20048;-73
2022/07/19 01:09:41;;;;;;;8.75;4.07;;;;;;;27.53;45.76;101890.13;5032604;28;20037;-75
2022/07/19 01:12:07;;;;;;;5.07;3.80;;;;;;;27.54;45.30;101886.22;5032488;28;20034;-74
2022/07/19 01:14:35;;;;;;;6.47;4.00;;;;;;;27.54;44.72;101885.41;5032910;28;20517;-75
2022/07/19 01:17:01;;;;;;;10.00;4.18;;;;;;;27.47;44.81;101887.81;5032073;28;20037;-74
2022/07/19 01:19:27;;;;;;;7.47;4.53;;;;;;;27.43;44.97;101884.84;5032205;28;20029;-72
2022/07/19 01:21:52;;;;;;;8.95;4.35;;;;;;;27.34;45.18;101883.16;5032631;28;20045;-75
2022/07/19 01:24:17;;;;;;;8.10;4.68;;;;;;;27.36;44.85;101887.22;5032603;28;20497;-74
2022/07/19 01:26:43;;;;;;;7.50;4.55;;;;;;;27.30;45.03;101888.44;5031626;28;20489;-74
2022/07/19 01:29:14;;;;;;;8.85;4.45;;;;;;;27.30;44.54;101893.94;5032088;28;20029;-74
2022/07/19 01:31:40;;;;;;;7.88;4.75;;;;;;;27.24;44.61;101891.63;5031802;28;20037;-74
2022/07/19 01:34:05;;;;;;;8.50;4.28;;;;;;;27.23;44.38;101888.06;5032476;28;20049;-73
2022/07/19 01:36:31;;;;;;;11.02;4.93;;;;;;;27.32;44.75;101894.44;5031922;28;20037;-74
2022/07/19 01:38:56;;;;;;;10.20;4.35;;;;;;;27.22;45.11;101897.47;5031606;28;20084;-73
2022/07/19 01:41:22;;;;;;;6.00;4.18;;;;;;;27.13;45.71;101890.22;5031621;28;20045;-73
2022/07/19 01:43:47;;;;;;;5.97;4.40;;;;;;;27.14;45.09;101900.16;5031920;28;20037;-74
2022/07/19 01:46:12;;;;;;;7.85;3.80;;;;;;;27.13;45.30;101895.75;5031823;28;20033;-74
2022/07/19 01:48:38;;;;;;;7.60;4.70;;;;;;;26.88;46.08;101892.44;5013238;28;20515;-73
2022/07/19 01:51:03;;;;;;;7.25;4.28;;;;;;;26.93;46.04;101892.31;5012994;28;20045;-75
2022/07/19 01:53:29;;;;;;;7.55;4.07;;;;;;;26.94;45.93;101887.63;5012977;28;20156;-73
2022/07/19 01:55:54;;;;;;;7.88;4.38;;;;;;;26.90;45.92;101890.19;5030920;28;20041;-73
2022/07/19 01:58:20;;;;;;;5.43;3.90;;;;;;;26.78;45.81;101883.53;5031883;28;20033;-74
2022/07/19 02:00:45;;;;;;;13.20;4.60;;;;;;;26.81;45.71;101882.94;5030894;28;20040;-74
2022/07/19 02:03:11;;;;;;;10.73;5.00;;;;;;;26.80;45.45;101890.41;5030403;28;20049;-73
2022/07/19 02:05:36;;;;;;;7.25;4.82;;;;;;;26.72;45.69;101882.84;5030384;28;20041;-73
2022/07/19 02:08:02;;;;;;;5.53;4.47;;;;;;;26.73;45.22;101878.94;5030493;28;20536;-74
2022/07/19 02:10:28;;;;;;;11.38;6.45;;;;;;;26.72;45.03;101884.78;5031113;28;20037;-74
2022/07/19 02:12:53;;;;;;;10.07;5.15;;;;;;;26.74;45.00;101882.53;5031699;28;20037;-73
2022/07/19 02:15:18;;;;;;;5.05;4.35;;;;;;;26.74;45.09;101875.06;5030502;28;20034;-74
2022/07/19 02:17:44;;;;;;;8.90;4.78;;;;;;;26.66;44.85;101875.75;5029992;28;20453;-74
2022/07/19 02:20:10;;;;;;;10.45;5.15;;;;;;;26.67;44.67;101871.06;5030306;28;20091;-75
2022/07/19 02:22:35;;;;;;;8.60;5.32;;;;;;;26.72;44.04;101866.28;5033008;28;20187;-73
2022/07/19 02:25:02;;;;;;;10.38;5.70;;;;;;;26.72;44.37;101871.81;5050267;28;20477;-73
2022/07/19 02:27:28;;;;;;;12.35;6.53;;;;;;;26.73;44.41;101873.44;5031453;28;20048;-74
2022/07/19 02:29:55;;;;;;;11.65;5.72;;;;;;;26.66;44.35;101872.19;5049820;28;20128;-74
2022/07/19 02:32:21;;;;;;;10.23;6.13;;;;;;;26.60;44.10;101881.69;5049552;28;20253;-73
2022/07/19 02:34:46;;;;;;;9.95;6.10;;;;;;;26.57;44.35;101877.63;5050175;28;20445;-73
2022/07/19 02:37:11;;;;;;;6.32;5.10;;;;;;;26.55;44.37;101879.88;5042649;28;20509;-74
2022/07/19 02:39:37;;;;;;;13.68;5.32;;;;;;;26.50;43.96;101879.97;5030145;28;20040;-74
2022/07/19 02:42:02;;;;;;;15.68;5.70;;;;;;;26.50;44.34;101877.19;5030213;28;20050;-75
2022/07/19 02:44:28;;;;;;;11.32;5.40;;;;;;;26.47;44.56;101874.25;5029887;28;20033;-73
2022/07/19 02:46:54;;;;;;;8.30;5.03;;;;;;;26.39;44.92;101881.28;5029971;28;20033;-74
2022/07/19 02:49:20;;;;;;;8.85;4.80;;;;;;;26.35;44.57;101880.25;5031046;28;20032;-74
2022/07/19 02:51:46;;;;;;;9.48;6.15;;;;;;;26.29;44.64;101875.97;5030619;28;20401;-73
2022/07/19 02:54:11;;;;;;;9.77;5.35;;;;;;;26.35;44.34;101879.44;5030187;28;20034;-74
2022/07/19 02:56:37;;;;;;;6.95;5.30;;;;;;;26.29;44.65;101887.00;5029934;28;20033;-73
2022/07/19 02:59:04;;;;;;;10.40;5.50;;;;;;;26.27;44.68;101886.47;5029031;28;20528;-74
2022/07/19 03:01:29;;;;;;;8.13;5.57;;;;;;;26.18;44.89;101882.78;5029216;28;20055;-73
2022/07/19 03:03:56;;;;;;;8.25;5.90;;;;;;;26.15;44.81;101877.88;5030098;28;20037;-73
2022/07/19 03:06:21;;;;;;;8.65;5.32;;;;;;;26.25;44.87;101880.47;5029758;28;20065;-74
2022/07/19 03:08:47;;;;;;;8.18;6.10;;;;;;;26.17;44.88;101877.59;5029509;28;20460;-74
2022/07/19 03:11:12;;;;;;;7.50;5.43;;;;;;;26.12;45.05;101880.44;5029448;28;20053;-75
2022/07/19 03:13:38;;;;;;;13.38;6.80;;;;;;;26.00;45.16;101880.91;5029432;28;20025;-72
2022/07/19 03:16:04;;;;;;;10.63;7.00;;;;;;;26.24;44.99;101875.25;5030201;28;20385;-73
2022/07/19 03:18:29;;;;;;;11.00;8.32;;;;;;;26.15;45.04;101877.06;5011653;28;20041;-74
2022/07/19 03:20:55;;;;;;;12.13;7.90;;;;;;;26.06;45.20;101882.47;5029079;28;20056;-74
2022/07/19 03:23:20;;;;;;;12.32;7.97;;;;;;;26.19;44.74;101881.69;5028827;28;20050;-73
2022/07/19 03:25:46;;;;;;;12.02;7.53;;;;;;;26.12;45.01;101888.72;5029112;28;20088;-74
2022/07/19 03:28:11;;;;;;;12.48;7.70;;;;;;;26.07;44.60;101884.09;5030186;28;20021;-74
2022/07/19 03:30:37;;;;;;;14.02;7.53;;;;;;;26.19;44.53;101886.34;5032458;28;20041;-75
2022/07/19 03:33:02;;;;;;;12.80;7.72;;;;;;;26.09;44.78;101882.69;5032854;28;20076;-74
2022/07/19 03:35:28;;;;;;;13.55;8.52;;;;;;;26.08;44.80;101878.28;5032839;28;20133;-73
2022/07/19 03:37:53;;;;;;;11.75;7.38;;;;;;;26.14;44.67;101880.97;5032645;28;20154;-74
2022/07/19 03:40:19;;;;;;;14.52;8.10;;;;;;;26.09;44.62;101879.09;5033572;28;20036;-74
2022/07/19 03:42:44;;;;;;;12.02;7.75;;;;;;;26.06;44.68;101883.28;5032300;28;20096;-74
2022/07/19 03:45:10;;;;;;;10.98;7.38;;;;;;;26.00;44.68;101883.66;5032823;28;20501;-74
2022/07/19 03:47:35;;;;;;;10.43;7.72;;;;;;;26.04;44.66;101876.41;5032743;28;20037;-74
2022/07/19 03:50:03;;;;;;;12.70;7.50;;;;;;;25.97;44.81;101874.06;5032968;28;20049;-74
2022/07/19 03:52:29;;;;;;;11.40;7.55;;;;;;;25.73;45.62;101872.56;5032295;28;20052;-74
2022/07/19 03:54:54;;;;;;;11.95;6.97;;;;;;;26.01;44.58;101866.00;5033117;28;20029;-73
2022/07/19 03:57:19;;;;;;;9.27;6.80;;;;;;;26.20;44.22;101871.47;5032855;28;20030;-74
2022/07/19 03:59:45;;;;;;;14.68;7.93;;;;;;;26.18;43.71;101876.47;5032267;28;20045;-74
2022/07/19 04:02:10;;;;;;;11.70;7.60;;;;;;;26.13;43.64;101868.28;5031256;28;20044;-73
2022/07/19 04:04:36;;;;;;;10.70;7.50;;;;;;;26.10;43.95;101865.00;5032548;28;20466;-74
2022/07/19 04:07:01;;;;;;;12.80;7.78;;;;;;;26.10;44.04;101867.78;5036445;28;20087;-73
2022/07/19 04:09:26;;;;;;;12.38;7.50;;;;;;;26.15;43.73;101866.03;5051437;28;20028;-74
2022/07/19 04:11:52;;;;;;;11.35;7.13;;;;;;;26.13;43.83;101863.59;5040568;28;20033;-74
2022/07/19 04:14:17;;;;;;;8.35;6.80;;;;;;;26.06;43.72;101864.00;5040053;28;20025;-74
2022/07/19 04:16:42;;;;;;;10.05;7.45;;;;;;;26.04;43.78;101868.16;5033300;28;20037;-72
2022/07/19 04:19:08;;;;;;;8.80;7.30;;;;;;;26.12;44.26;101867.50;5032403;28;20115;-74
2022/07/19 04:21:33;;;;;;;12.52;7.55;;;;;;;26.08;43.64;101860.94;5013330;28;20045;-74
2022/07/19 04:23:59;;;;;;;9.48;7.55;;;;;;;26.06;43.85;101863.19;5031348;28;20409;-73
2022/07/19 04:26:24;;;;;;;9.95;7.32;;;;;;;26.14;43.69;101859.75;5030256;28;20068;-74
2022/07/19 04:28:50;;;;;;;9.95;7.00;;;;;;;26.24;43.29;101856.75;5031894;28;20819;-74
2022/07/19 04:31:16;;;;;;;11.35;7.15;;;;;;;26.17;43.34;101859.13;5034399;28;20037;-73
2022/07/19 04:33:42;;;;;;;12.55;7.05;;;;;;;26.20;43.33;101866.75;5051845;28;20515;-73
2022/07/19 04:36:07;;;;;;;9.55;6.95;;;;;;;26.21;43.18;101862.06;5051983;28;20037;-73
2022/07/19 04:38:33;;;;;;;10.05;7.07;;;;;;;26.27;43.04;101858.91;5052219;28;20033;-74
2022/07/19 04:40:58;;;;;;;10.13;6.72;;;;;;;26.19;43.21;101859.63;5050532;28;20041;-74
2022/07/19 04:43:23;;;;;;;13.25;7.40;;;;;;;26.23;43.47;101862.59;5051996;28;20031;-74
2022/07/19 04:45:49;;;;;;;12.65;6.82;;;;;;;26.21;43.20;101871.16;5051860;28;20382;-74
2022/07/19 04:48:14;;;;;;;11.98;6.95;;;;;;;26.25;43.36;101865.84;5051963;28;20036;-73
2022/07/19 04:50:40;;;;;;;7.97;6.25;;;;;;;26.29;42.94;101869.63;5051570;28;20168;-74
2022/07/19 04:53:07;;;;;;;10.70;7.25;;;;;;;26.42;42.56;101871.56;5051540;28;20037;-75
2022/07/19 04:55:32;;;;;;;13.05;7.13;;;;;;;26.45;42.34;101869.03;5051484;28;20048;-74
2022/07/19 04:57:58;;;;;;;14.15;6.85;;;;;;;26.45;42.25;101876.50;5052183;28;20041;-74
2022/07/19 05:00:23;;;;;;;9.43;6.95;;;;;;;26.42;42.46;101866.06;5051379;28;20087;-74
2022/07/19 05:02:48;;;;;;;9.50;6.63;;;;;;;26.51;42.38;101873.34;5051353;28;20033;-73
2022/07/19 05:05:14;;;;;;;12.65;6.93;;;;;;;26.46;42.65;101861.56;5051404;28;20044;-73
2022/07/19 05:07:40;;;;;;;11.98;7.35;;;;;;;26.57;42.43;101866.59;5051166;28;20044;-73
2022/07/19 05:10:07;;;;;;;8.50;5.75;;;;;;;26.56;42.58;101870.47;5052049;28;20036;-74
2022/07/19 05:12:32;;;;;;;12.38;6.43;;;;;;;26.57;42.58;101868.53;5037425;28;20100;-73
2022/07/19 05:14:58;;;;;;;11.45;7.88;;;;;;;26.52;42.91;101857.59;5030178;28;20029;-74
2022/07/19 05:17:24;;;;;;;10.65;5.95;;;;;;;26.59;43.21;101863.53;5030127;28;20401;-74
2022/07/19 05:19:49;;;;;;;10.05;6.30;;;;;;;26.66;43.16;101863.91;5012771;28;20053;-74
2022/07/19 05:22:15;;;;;;;11.82;6.75;;;;;;;26.78;42.58;101859.53;5030954;28;20408;-73
2022/07/19 05:24:40;;;;;;;9.63;6.90;;;;;;;26.94;41.89;101857.25;5030490;28;20042;-74
2022/07/19 05:27:05;;;;;;;9.90;7.18;;;;;;;26.89;41.99;101858.19;5030199;28;20081;-74
2022/07/19 05:29:31;;;;;;;11.70;6.68;;;;;;;26.91;41.96;101855.94;5030655;28;20513;-74
2022/07/19 05:31:56;;;;;;;11.48;6.30;;;;;;;26.97;41.81;101851.13;5030302;28;20041;-73
2022/07/19 05:34:22;;;;;;;11.23;6.68;;;;;;;26.98;42.35;101855.53;5030954;28;20036;-73
2022/07/19 05:36:47;;;;;;;11.38;6.95;;;;;;;27.06;42.49;101862.25;5031119;28;20044;-73
2022/07/19 05:39:12;;;;;;;7.53;6.35;;;;;;;27.15;42.23;101854.84;5030860;28;20520;-73
2022/07/19 05:41:38;;;;;;;13.15;7.68;;;;;;;27.11;42.26;101857.41;5031205;28;20041;-74
2022/07/19 05:44:03;;;;;;;13.48;6.13;;;;;;;27.13;42.40;101849.63;5030701;28;20060;-74
2022/07/19 05:46:29;;;;;;;9.68;6.10;;;;;;;27.22;42.60;101861.59;5030569;28;20041;-73
2022/07/19 05:49:13;;;;;;;12.48;6.97;;;;;;;27.39;41.94;101864.53;5030534;28;20091;-73
2022/07/19 05:51:39;;;;;;;10.65;7.28;;;;;;;27.37;40.92;101868.72;5029680;28;20033;-73
2022/07/19 05:54:05;;;;;;;12.88;6.28;;;;;;;27.49;41.04;101875.31;5031151;28;20512;-73
2022/07/19 05:56:31;;;;;;;14.20;7.30;;;;;;;27.59;41.31;101869.56;5029681;28;20103;-75
2022/07/19 05:58:57;;;;;;;13.48;6.47;;;;;;;27.55;42.31;101868.53;5029778;28;20040;-74
2022/07/19 06:01:22;;;;;;;17.10;6.65;;;;;;;27.63;41.64;101865.03;5030577;28;20033;-73
2022/07/19 06:03:51;;;;;;;11.63;6.93;;;;;;;27.73;41.19;101864.75;5029359;28;20026;-74
2022/07/19 06:06:17;;;;;;;10.93;6.35;;;;;;;27.80;40.57;101859.59;5029444;28;20041;-74
2022/07/19 06:08:43;;;;;;;10.20;6.40;;;;;;;27.87;40.07;101861.94;5028670;28;20557;-75
2022/07/19 06:11:08;;;;;;;10.48;6.25;;;;;;;27.97;38.89;101863.63;5028926;28;20033;-75
2022/07/19 06:13:34;;;;;;;11.95;6.07;;;;;;;28.04;38.98;101866.75;5029043;28;20017;-73
2022/07/19 06:16:01;;;;;;;14.55;5.97;;;;;;;28.06;38.58;101868.06;5029553;28;20099;-74
2022/07/19 06:18:29;;;;;;;12.68;6.32;;;;;;;28.21;38.05;101867.66;5010753;28;20466;-74
2022/07/19 06:20:55;;;;;;;14.60;5.88;;;;;;;28.29;37.70;101875.16;5028120;28;20044;-74
2022/07/19 06:23:20;;;;;;;10.75;6.35;;;;;;;28.36;36.91;101866.41;5025978;28;20045;-78
2022/07/19 06:25:46;;;;;;;11.27;5.95;;;;;;;28.47;36.50;101876.88;5027488;28;20049;-77
2022/07/19 06:28:12;;;;;;;10.45;5.50;;;;;;;28.54;36.86;101865.31;5028090;28;20481;-77
2022/07/19 06:30:37;;;;;;;9.27;5.75;;;;;;;28.63;36.39;101868.97;5027766;28;20041;-77
2022/07/19 06:33:02;;;;;;;12.68;5.43;;;;;;;28.72;36.40;101866.25;5021255;28;20041;-78
2022/07/19 06:35:28;;;;;;;7.15;4.47;;;;;;;28.82;36.00;101872.28;5027480;28;20049;-78
2022/07/19 06:37:53;;;;;;;17.98;5.72;;;;;;;28.90;35.51;101863.16;5028397;28;20033;-79
2022/07/19 06:40:19;;;;;;;9.98;5.22;;;;;;;29.00;35.21;101860.09;5029089;28;20033;-77
2022/07/19 06:42:44;;;;;;;8.13;5.25;;;;;;;29.11;34.42;101855.06;5028005;28;20045;-77
2022/07/19 06:45:10;;;;;;;8.98;5.00;;;;;;;29.20;34.57;101858.66;5027970;28;20772;-77
2022/07/19 06:47:37;;;;;;;8.45;4.47;;;;;;;29.31;34.16;101857.19;5010353;28;20543;-77
2022/07/19 06:50:02;;;;;;;9.93;5.13;;;;;;;29.45;32.89;101860.63;5025756;28;20569;-78
2022/07/19 06:52:28;;;;;;;8.98;5.25;;;;;;;29.58;33.15;101856.03;5027987;28;20104;-78
2022/07/19 06:54:53;;;;;;;10.98;4.50;;;;;;;29.70;33.36;101851.44;5028106;28;20432;-77
2022/07/19 06:57:19;;;;;;;11.00;5.85;;;;;;;29.85;33.30;101850.16;5028212;28;20034;-78
2022/07/19 06:59:44;;;;;;;11.70;4.70;;;;;;;29.94;32.52;101860.06;5025074;28;20033;-77
2022/07/19 07:02:09;;;;;;;6.22;4.72;;;;;;;30.00;32.45;101853.19;5025595;28;20034;-76
2022/07/19 07:04:35;;;;;;;6.50;5.13;;;;;;;30.28;30.95;101851.66;5029091;28;20041;-77
2022/07/19 07:07:00;;;;;;;8.60;4.93;;;;;;;30.41;31.41;101852.56;5030411;28;20076;-77
2022/07/19 07:09:26;;;;;;;10.43;5.80;;;;;;;30.42;30.87;101854.19;5031777;28;20030;-77
2022/07/19 07:11:51;;;;;;;6.15;5.28;;;;;;;30.56;30.47;101854.78;5030112;28;20033;-77
2022/07/19 07:14:17;;;;;;;7.43;5.53;;;;;;;30.55;30.96;101846.78;5031759;28;20100;-78
2022/07/19 07:16:42;;;;;;;9.63;5.95;;;;;;;30.79;30.72;101853.31;5031124;28;20037;-77
2022/07/19 07:19:08;;;;;;;8.77;5.95;;;;;;;30.86;31.24;101850.06;5031500;28;20060;-76
2022/07/19 07:21:34;;;;;;;10.57;5.35;;;;;;;30.80;31.95;101845.81;5030792;28;20519;-76
2022/07/19 07:24:04;;;;;;;9.48;6.68;;;;;;;30.59;32.68;101834.66;5031789;28;20041;-76
2022/07/19 07:26:30;;;;;;;13.38;7.00;;;;;;;30.74;33.08;101836.84;5031546;28;20029;-77
2022/07/19 07:28:55;;;;;;;10.70;6.13;;;;;;;30.82;32.70;101843.53;5031779;28;20033;-76
2022/07/19 07:31:21;;;;;;;10.27;6.43;;;;;;;30.85;32.50;101832.56;5031640;28;20029;-78
2022/07/19 07:33:46;;;;;;;17.17;7.00;;;;;;;30.90;32.93;101832.38;5031483;28;20105;-77
2022/07/19 07:36:12;;;;;;;14.90;7.50;;;;;;;31.07;32.31;101837.81;5031427;28;20037;-78
2022/07/19 07:38:37;;;;;;;15.57;6.55;;;;;;;31.16;31.93;101837.72;5031232;28;20052;-78
2022/07/19 07:41:15;;;;;;;9.30;5.97;;;;;;;31.24;32.62;101828.50;5031444;28;20120;-77
2022/07/19 07:43:40;;;;;;;9.95;6.15;;;;;;;31.46;32.03;101821.78;5008571;28;21203;-76
2022/07/19 07:46:06;;;;;;;11.77;7.40;;;;;;;31.43;32.17;101834.38;5016975;28;20022;-77
2022/07/19 07:48:31;;;;;;;16.90;6.60;;;;;;;31.59;31.96;101829.81;5014082;28;20038;-77
2022/07/19 07:50:57;;;;;;;15.13;7.13;;;;;;;31.76;32.03;101826.06;5013947;28;20045;-76
2022/07/19 07:53:22;;;;;;;10.23;6.65;;;;;;;31.76;32.39;101826.84;5022795;28;20040;-77
2022/07/19 07:55:48;;;;;;;10.90;6.72;;;;;;;31.92;31.93;101819.50;5015336;28;20037;-75
2022/07/19 07:58:13;;;;;;;18.23;7.00;;;;;;;32.18;32.03;101819.16;5017486;28;20473;-76
2022/07/19 08:00:40;;;;;;;7.07;5.60;;;;;;;32.38;31.65;101821.03;5026204;28;20036;-76
2022/07/19 08:03:06;;;;;;;7.38;5.50;;;;;;;32.48;31.68;101817.81;5010798;28;20034;-76
2022/07/19 08:05:32;;;;;;;15.65;6.53;;;;;;;32.73;30.87;101824.16;5027874;28;20038;-74
2022/07/19 08:07:58;;;;;;;14.65;6.03;;;;;;;32.78;30.97;101818.34;5028812;28;20104;-76
2022/07/19 08:10:31;;;;;;;11.52;5.45;;;;;;;32.71;30.54;101818.94;5030415;28;20029;-78
2022/07/19 08:12:56;;;;;;;9.48;5.57;;;;;;;33.09;29.27;101815.75;5024006;28;20512;-77
2022/07/19 08:15:22;;;;;;;12.40;5.18;;;;;;;33.62;28.12;101812.50;5024891;28;20034;-77
2022/07/19 08:17:47;;;;;;;9.80;5.28;;;;;;;33.79;27.98;101807.75;5009694;28;20037;-75
2022/07/19 08:20:13;;;;;;;14.68;5.40;;;;;;;33.90;27.63;101811.63;5028994;28;20029;-77
2022/07/19 08:22:39;;;;;;;11.00;5.78;;;;;;;33.99;28.29;101809.47;5010749;28;20049;-76
2022/07/19 08:25:05;;;;;;;9.63;4.55;;;;;;;34.18;27.99;101807.59;5024529;28;20061;-75
2022/07/19 08:27:31;;;;;;;8.13;5.50;;;;;;;34.13;28.25;101807.06;5010590;28;20034;-76
2022/07/19 08:29:56;;;;;;;12.38;5.15;;;;;;;34.53;27.53;101807.66;5010654;28;20064;-76
2022/07/19 08:32:22;;;;;;;8.00;4.85;;;;;;;34.70;27.55;101807.25;5026104;28;20041;-76
2022/07/19 08:34:47;;;;;;;7.50;4.47;;;;;;;34.58;27.09;101806.56;5026392;28;20037;-75
2022/07/19 08:37:12;;;;;;;7.93;3.97;;;;;;;34.83;26.96;101803.16;5035517;28;20337;-77
2022/07/19 08:39:38;;;;;;;8.70;4.22;;;;;;;34.94;26.32;101803.38;5025969;28;21477;-77
2022/07/19 08:42:03;;;;;;;6.20;3.95;;;;;;;35.09;26.36;101806.13;5025669;28;20051;-76
2022/07/19 08:44:29;;;;;;;5.95;4.18;;;;;;;35.19;25.86;101808.34;5026715;28;20033;-77
2022/07/19 08:46:55;;;;;;;9.18;4.50;;;;;;;35.29;25.50;101804.13;5027124;28;20251;-76
2022/07/19 08:49:21;;;;;;;7.93;3.25;;;;;;;35.40;25.64;101804.34;5027748;28;20123;-76
2022/07/19 08:51:48;;;;;;;3.65;2.47;;;;;;;35.60;24.32;101794.78;5025627;28;20121;-75
2022/07/19 08:54:14;;;;;;;7.82;3.17;;;;;;;35.57;24.37;101789.91;5024831;28;20037;-73
2022/07/19 08:59:24;;;;;;;5.45;2.40;;;;;;;36.09;23.01;101799.28;5023175;28;20097;-75
2022/07/19 09:01:50;;;;;;;5.47;2.30;;;;;;;36.06;22.34;101794.44;5024274;28;20037;-74
2022/07/19 09:04:19;;;;;;;4.63;2.38;;;;;;;36.27;22.05;101795.94;5022528;28;20020;-74
2022/07/19 09:06:48;;;;;;;3.90;2.20;;;;;;;36.41;21.69;101790.59;5021292;28;20065;-75
2022/07/19 09:09:18;;;;;;;4.68;2.10;;;;;;;36.45;21.27;101794.25;5023258;28;20781;-75
2022/07/19 09:11:50;;;;;;;5.25;1.85;;;;;;;36.61;21.27;101792.09;5008181;28;20678;-75
2022/07/19 09:14:30;;;;;;;5.80;1.48;;;;;;;36.65;20.70;101785.34;5005706;28;20037;-75
2022/07/19 09:17:03;;;;;;;6.55;1.60;;;;;;;36.60;20.64;101793.28;5025595;28;20048;-76
2022/07/19 09:19:39;;;;;;;6.68;1.77;;;;;;;36.58;20.60;101782.44;5025640;28;20540;-75
2022/07/19 09:22:10;;;;;;;6.18;1.90;;;;;;;36.98;20.03;101785.41;5024306;28;20033;-76
2022/07/19 09:24:44;;;;;;;4.78;2.25;;;;;;;37.19;19.84;101782.03;5024518;28;20037;-77
2022/07/19 09:27:15;;;;;;;9.50;1.80;;;;;;;37.54;19.53;101784.47;5005503;28;20025;-76
2022/07/19 09:29:43;;;;;;;4.97;2.00;;;;;;;37.66;19.43;101781.38;5022400;28;20033;-75
2022/07/19 09:32:12;;;;;;;4.53;1.77;;;;;;;37.87;19.87;101776.00;5025603;28;20033;-76
2022/07/19 09:34:59;;;;;;;6.35;2.13;;;;;;;38.01;19.48;101773.28;5025668;28;20032;-77
2022/07/19 09:37:27;;;;;;;11.05;2.90;;;;;;;37.79;19.36;101774.31;5023741;28;20174;-76
2022/07/19 09:39:55;;;;;;;5.75;2.33;;;;;;;38.17;19.54;101773.81;5024998;28;20119;-75
2022/07/19 09:42:35;;;;;;;3.55;2.00;;;;;;;38.25;19.38;101772.69;5024390;28;20041;-75
2022/07/19 09:45:04;;;;;;;5.93;2.22;;;;;;;38.35;18.44;101769.13;5025023;28;20042;-76
2022/07/19 09:47:38;;;;;;;6.03;1.88;;;;;;;38.70;18.48;101764.97;5024771;28;20498;-75
2022/07/19 09:50:06;;;;;;;5.13;1.40;;;;;;;38.76;17.85;101771.81;5022523;28;20041;-77
2022/07/19 09:52:34;;;;;;;2.35;1.48;;;;;;;38.92;17.95;101763.84;5024357;28;20491;-75
2022/07/19 09:55:04;;;;;;;7.28;2.13;;;;;;;38.81;17.78;101765.78;5007685;28;20056;-76
2022/07/19 09:57:34;;;;;;;5.45;1.92;;;;;;;38.99;17.64;101770.31;5024767;28;20052;-76
2022/07/19 10:00:02;;;;;;;7.10;1.75;;;;;;;39.03;17.64;101759.88;5022159;28;20037;-75
2022/07/19 10:02:29;;;;;;;3.58;1.67;;;;;;;39.15;17.79;101761.53;5014538;28;20041;-76
2022/07/19 10:04:56;;;;;;;5.93;1.35;;;;;;;39.48;17.17;101756.38;5020918;28;20215;-76
2022/07/19 10:07:23;;;;;;;4.15;1.40;;;;;;;39.57;17.29;101750.38;5024387;28;20021;-75
2022/07/19 10:09:50;;;;;;;5.03;1.55;;;;;;;39.94;16.39;101756.41;5025118;28;20070;-73
2022/07/19 10:12:16;;;;;;;5.63;1.98;;;;;;;40.09;16.98;101758.06;5006898;28;20030;-76
2022/07/19 10:14:41;;;;;;;7.28;1.42;;;;;;;40.35;16.60;101751.94;5003666;28;20046;-76
2022/07/19 10:17:53;;;;;;;5.15;1.30;;;;;;;40.13;16.29;101752.41;5024927;28;20510;-75
2022/07/19 10:20:23;;;;;;;1.75;1.33;;;;;;;40.45;15.05;101741.91;5020736;28;20048;-78
2022/07/19 10:22:50;;;;;;;6.47;1.40;;;;;;;39.92;15.71;101746.78;5024856;28;20356;-76
2022/07/19 10:25:17;;;;;;;5.47;1.30;;;;;;;40.34;15.12;101736.25;5023777;28;20113;-75
2022/07/19 10:27:45;;;;;;;6.22;1.15;;;;;;;40.62;14.40;101741.03;5021815;28;20489;-75
2022/07/19 10:30:11;;;;;;;2.80;1.33;;;;;;;40.71;14.40;101738.56;5024136;28;20033;-77
2022/07/19 10:32:38;;;;;;;5.85;1.30;;;;;;;41.17;14.09;101738.38;5021680;28;20124;-76
2022/07/19 10:35:26;;;;;;;8.00;1.98;;;;;;;41.30;14.09;101738.72;5018889;28;20569;-77
2022/07/19 10:38:01;;;;;;;2.42;1.50;;;;;;;41.20;13.90;101734.75;4993661;28;20124;-77
2022/07/19 10:40:46;;;;;;;5.47;1.60;;;;;;;41.36;13.72;101725.78;5022341;28;20043;-74
2022/07/19 10:43:16;;;;;;;4.20;1.50;;;;;;;41.40;14.04;101735.81;5023577;28;20142;-75
2022/07/19 10:46:03;;;;;;;2.17;1.55;;;;;;;41.67;13.67;101719.09;5021197;28;20056;-78
2022/07/19 10:48:41;;;;;;;4.32;1.40;;;;;;;41.16;13.98;101726.25;5023731;28;20033;-75
2022/07/19 10:51:12;;;;;;;4.90;1.20;;;;;;;41.36;13.72;101717.31;5024189;28;20080;-76
2022/07/19 10:53:40;;;;;;;3.85;1.20;;;;;;;41.84;13.67;101715.31;5005947;28;20048;-76
2022/07/19 10:56:16;;;;;;;3.00;1.20;;;;;;;42.10;12.76;101702.56;5023722;28;20409;-77
2022/07/19 10:58:52;;;;;;;3.78;1.70;;;;;;;42.30;12.75;101710.00;5022863;28;20123;-75
2022/07/19 11:01:20;;;;;;;5.28;1.60;;;;;;;42.38;12.84;101699.44;5021668;28;20069;-75
2022/07/19 11:03:47;;;;;;;3.35;1.00;;;;;;;42.34;12.64;101695.84;5023789;28;20448;-76
2022/07/19 11:06:24;;;;;;;4.90;1.58;;;;;;;42.74;12.48;101701.41;5021653;28;20539;-76
2022/07/19 11:08:55;;;;;;;5.18;1.20;;;;;;;42.88;12.75;101691.94;5012269;28;20266;-75
2022/07/19 11:11:20;;;;;;;3.15;1.23;;;;;;;42.85;12.36;101698.47;5006836;28;20112;-79
2022/07/19 11:13:48;;;;;;;9.38;1.30;;;;;;;42.91;12.52;101691.09;5006820;28;20069;-76
2022/07/19 11:16:14;;;;;;;2.40;1.23;;;;;;;43.00;12.76;101690.56;5010305;28;20029;-77
2022/07/19 11:18:43;;;;;;;4.70;1.40;;;;;;;43.39;12.27;101691.56;5021178;28;20512;-77
2022/07/19 11:21:10;;;;;;;5.60;1.70;;;;;;;43.67;11.86;101686.69;5023037;28;20042;-78
2022/07/19 11:23:36;;;;;;;3.20;1.40;;;;;;;43.30;12.45;101680.00;5025228;28;20401;-78